createdAt,value
2022-07-28T00:04:49.311Z,21.36
2022-07-28T00:09:42.755Z,21.35
2022-07-28T00:14:36.331Z,21.26
2022-07-28T00:19:31.388Z,20.95
2022-07-28T00:24:24.852Z,21.01
2022-07-28T00:29:18.251Z,21.22
2022-07-28T00:34:12.151Z,21.05
2022-07-28T00:39:07.326Z,20.94
2022-07-28T00:44:00.641Z,21.12
2022-07-28T00:48:56.406Z,20.98
2022-07-28T00:53:50.316Z,20.99
2022-07-28T00:58:45.054Z,21.16
2022-07-28T01:03:43.987Z,21.05
2022-07-28T01:08:54.524Z,21.38
2022-07-28T01:14:03.921Z,21.12
2022-07-28T01:19:09.630Z,21.02
2022-07-28T01:24:24.090Z,20.75
2022-07-28T01:30:00.543Z,20.79
2022-07-28T01:35:01.880Z,20.76
2022-07-28T01:40:04.494Z,20.62
2022-07-28T01:45:05.250Z,20.42
2022-07-28T01:50:06.335Z,20.51
2022-07-28T01:55:02.950Z,20.56
2022-07-28T01:59:58.811Z,20.50
2022-07-28T02:04:57.008Z,20.48
2022-07-28T02:09:52.732Z,20.44
2022-07-28T02:14:51.420Z,20.55
2022-07-28T02:19:48.756Z,20.46
2022-07-28T02:24:46.204Z,20.44
2022-07-28T02:30:02.668Z,20.53
2022-07-28T02:35:05.436Z,20.55
2022-07-28T02:40:01.508Z,20.36
2022-07-28T02:45:01.728Z,20.23
2022-07-28T02:49:57.440Z,20.24
2022-07-28T02:54:53.084Z,20.16
2022-07-28T02:59:48.469Z,19.87
2022-07-28T03:05:01.705Z,19.85
2022-07-28T03:09:55.567Z,19.68
2022-07-28T03:14:49.153Z,19.56
2022-07-28T03:19:44.058Z,19.47
2022-07-28T03:24:39.898Z,19.36
2022-07-28T03:29:37.417Z,19.57
2022-07-28T03:34:31.091Z,19.44
2022-07-28T03:39:32.576Z,19.47
2022-07-28T03:44:28.971Z,19.42
2022-07-28T03:49:23.247Z,19.17
2022-07-28T03:54:17.033Z,19.11
2022-07-28T03:59:12.425Z,19.19
2022-07-28T04:04:06.539Z,19.14
2022-07-28T04:08:59.887Z,18.97
2022-07-28T04:13:53.556Z,18.96
2022-07-28T04:18:48.576Z,18.94
2022-07-28T04:23:42.090Z,18.86
2022-07-28T04:28:36.093Z,18.71
2022-07-28T04:33:29.460Z,18.72
2022-07-28T04:38:24.228Z,18.81
2022-07-28T04:43:17.968Z,18.94
2022-07-28T04:48:12.418Z,19.06
2022-07-28T04:53:05.800Z,19.33
2022-07-28T04:58:00.461Z,19.57
2022-07-28T05:02:53.838Z,19.62
2022-07-28T05:07:47.310Z,19.93
2022-07-28T05:12:41.147Z,20.10
2022-07-28T05:17:36.951Z,20.27
2022-07-28T05:22:30.796Z,20.53
2022-07-28T05:27:24.486Z,20.56
2022-07-28T05:32:18.237Z,20.72
2022-07-28T05:37:13.160Z,20.84
2022-07-28T05:42:07.186Z,20.77
2022-07-28T05:47:00.513Z,20.96
2022-07-28T05:51:53.831Z,20.91
2022-07-28T05:56:50.442Z,20.95
2022-07-28T06:01:43.936Z,20.88
2022-07-28T06:06:37.735Z,20.71
2022-07-28T06:11:31.105Z,20.72
2022-07-28T06:16:26.100Z,20.78
2022-07-28T06:21:19.740Z,20.70
2022-07-28T06:26:13.113Z,20.29
2022-07-28T06:31:06.664Z,20.37
2022-07-28T06:36:01.456Z,20.57
2022-07-28T06:40:54.812Z,20.61
2022-07-28T06:45:48.295Z,20.69
2022-07-28T06:50:45.989Z,20.90
2022-07-28T06:55:41.372Z,20.97
2022-07-28T07:00:34.895Z,21.05
2022-07-28T07:05:30.026Z,21.13
2022-07-28T07:10:23.551Z,21.08
2022-07-28T07:15:18.320Z,21.10
2022-07-28T07:20:14.325Z,21.42
2022-07-28T07:25:11.369Z,21.98
2022-07-28T07:30:06.177Z,22.22
2022-07-28T07:35:00.963Z,22.45
2022-07-28T07:39:54.310Z,22.46
2022-07-28T07:44:50.307Z,22.90
2022-07-28T07:49:46.100Z,23.11
2022-07-28T07:54:41.335Z,23.13
2022-07-28T07:59:34.698Z,23.26
2022-07-28T08:04:28.798Z,23.56
2022-07-28T08:09:22.462Z,23.72
2022-07-28T08:14:17.999Z,23.89
2022-07-28T08:19:11.826Z,23.87
2022-07-28T08:24:05.965Z,24.11
2022-07-28T08:28:59.348Z,24.07
2022-07-28T08:33:54.909Z,24.27
2022-07-28T08:38:48.473Z,24.49
2022-07-28T08:43:43.714Z,24.71
2022-07-28T08:48:39.227Z,24.63
2022-07-28T08:53:36.763Z,24.74
2022-07-28T08:58:33.412Z,24.65
2022-07-28T09:03:29.170Z,24.95
2022-07-28T09:08:23.154Z,25.26
2022-07-28T09:13:19.219Z,24.69
2022-07-28T09:18:12.650Z,25.13
2022-07-28T09:23:33.495Z,25.46
2022-07-28T09:28:23.939Z,25.71
2022-07-28T09:33:42.929Z,25.84
2022-07-28T09:38:42.937Z,25.95
2022-07-28T09:43:40.747Z,26.00
2022-07-28T09:48:34.324Z,25.94
2022-07-28T09:53:28.876Z,26.04
2022-07-28T09:58:22.423Z,26.19
2022-07-28T10:03:29.339Z,26.30
2022-07-28T10:08:42.241Z,26.76
2022-07-28T10:13:37.130Z,27.09
2022-07-28T10:18:31.912Z,27.07
2022-07-28T10:23:25.441Z,27.06
2022-07-28T10:28:23.242Z,26.99
2022-07-28T10:33:18.105Z,26.92
2022-07-28T10:38:16.260Z,27.11
2022-07-28T10:43:10.263Z,27.10
2022-07-28T10:48:06.163Z,27.31
2022-07-28T10:53:02.903Z,27.54
2022-07-28T10:58:12.384Z,27.79
2022-07-28T11:03:14.059Z,27.81
2022-07-28T11:08:10.796Z,27.91
2022-07-28T11:13:06.137Z,27.97
2022-07-28T11:18:09.835Z,27.98
2022-07-28T11:23:55.961Z,28.38
2022-07-28T11:29:20.537Z,28.15
2022-07-28T11:34:15.451Z,27.74
2022-07-28T11:39:25.354Z,27.66
2022-07-28T11:44:28.356Z,27.78
2022-07-28T11:49:28.065Z,28.33
2022-07-28T11:54:21.700Z,28.54
2022-07-28T11:59:16.576Z,28.36
2022-07-28T12:04:14.866Z,28.47
2022-07-28T12:09:10.757Z,28.41
2022-07-28T12:14:06.214Z,28.31
2022-07-28T12:19:01.692Z,28.09
2022-07-28T12:23:56.751Z,27.76
2022-07-28T12:28:52.273Z,27.73
2022-07-28T12:33:45.723Z,27.77
2022-07-28T12:38:39.347Z,27.86
2022-07-28T12:43:34.385Z,28.05
2022-07-28T12:48:27.936Z,28.10
2022-07-28T12:53:22.896Z,28.08
2022-07-28T12:58:36.179Z,28.07
2022-07-28T13:03:31.034Z,27.96
2022-07-28T13:08:27.653Z,28.12
2022-07-28T13:13:22.985Z,28.19
2022-07-28T13:18:17.746Z,28.18
2022-07-28T13:23:11.111Z,28.19
2022-07-28T13:28:04.575Z,28.19
2022-07-28T13:32:58.638Z,28.18
2022-07-28T13:37:53.449Z,28.16
2022-07-28T13:42:52.746Z,28.23
2022-07-28T13:47:52.178Z,28.27
2022-07-28T13:52:45.928Z,28.22
2022-07-28T14:23:34.095Z,28.05
2022-07-28T14:28:27.460Z,28.09
2022-07-28T14:33:20.983Z,28.23
2022-07-28T14:38:52.458Z,28.11
2022-07-28T14:43:29.322Z,28.24
2022-07-28T14:48:22.783Z,28.30
2022-07-28T14:53:17.283Z,28.33
2022-07-28T14:58:10.696Z,28.35
2022-07-28T15:03:05.725Z,28.43
2022-07-28T15:07:59.180Z,28.26
2022-07-28T15:12:53.007Z,28.24
2022-07-28T15:17:47.759Z,28.27
2022-07-28T15:27:53.624Z,28.26
2022-07-28T15:32:55.981Z,28.32
2022-07-28T15:37:50.460Z,28.32
2022-07-28T15:42:43.800Z,28.32
2022-07-28T15:47:38.767Z,28.35
2022-07-28T15:52:32.070Z,28.39
2022-07-28T15:57:25.432Z,28.36
2022-07-28T16:02:31.033Z,28.23
2022-07-28T16:07:28.303Z,28.24
2022-07-28T16:12:22.866Z,28.40
2022-07-28T16:17:16.649Z,28.55
2022-07-28T16:22:10.101Z,28.47
2022-07-28T16:27:04.936Z,28.35
2022-07-28T16:31:58.343Z,28.37
2022-07-28T16:36:51.782Z,28.13
2022-07-28T16:41:46.767Z,28.09
2022-07-28T16:46:42.347Z,28.00
2022-07-28T16:51:35.786Z,27.88
2022-07-28T16:56:29.423Z,27.69
2022-07-28T17:01:22.809Z,27.55
2022-07-28T17:06:17.685Z,27.36
2022-07-28T17:21:35.325Z,27.31
2022-07-28T17:27:32.574Z,27.37
2022-07-28T17:59:51.013Z,25.32
2022-07-28T18:04:47.481Z,25.33
2022-07-28T18:09:41.952Z,24.97
2022-07-28T18:21:27.085Z,24.58
2022-07-28T18:26:24.599Z,24.02
2022-07-28T18:36:30.079Z,23.77
2022-07-28T18:41:26.664Z,23.58
2022-07-28T18:56:41.093Z,23.23
2022-07-28T19:01:34.952Z,23.46
2022-07-28T19:06:29.335Z,23.62
2022-07-28T19:11:22.872Z,23.38
2022-07-28T19:16:20.167Z,23.67
2022-07-28T19:42:10.659Z,22.96
2022-07-28T19:47:04.263Z,22.81
2022-07-28T19:51:58.012Z,23.38
2022-07-28T20:44:29.944Z,22.78
